createdAt,value
2018-12-24T00:00:25.350Z,7.98
2018-12-24T00:01:25.328Z,7.92
2018-12-24T00:02:25.305Z,7.91
2018-12-24T00:03:25.283Z,7.86
2018-12-24T00:04:25.271Z,7.84
2018-12-24T00:05:25.241Z,7.98
2018-12-24T00:06:25.225Z,7.84
2018-12-24T00:07:25.203Z,7.83
2018-12-24T00:08:25.177Z,7.84
2018-12-24T00:09:25.155Z,7.91
2018-12-24T00:10:25.143Z,7.91
2018-12-24T00:11:25.114Z,7.80
2018-12-24T00:12:25.092Z,7.86
2018-12-24T00:13:25.072Z,7.87
2018-12-24T00:14:25.049Z,7.81
2018-12-24T00:15:25.035Z,7.71
2018-12-24T00:16:25.007Z,7.77
2018-12-24T00:17:24.995Z,7.74
2018-12-24T00:18:24.966Z,7.77
2018-12-24T00:19:24.944Z,7.80
2018-12-24T00:20:24.923Z,7.86
2018-12-24T00:21:24.902Z,7.78
2018-12-24T00:22:24.880Z,7.96
2018-12-24T00:23:24.860Z,7.92
2018-12-24T00:24:24.838Z,7.95
2018-12-24T00:25:24.816Z,7.98
2018-12-24T00:26:24.795Z,8.02
2018-12-24T00:27:24.777Z,7.98
2018-12-24T00:28:24.753Z,8.04
2018-12-24T00:29:24.733Z,7.98
2018-12-24T00:30:24.711Z,8.06
2018-12-24T00:31:24.691Z,8.01
2018-12-24T00:32:24.671Z,7.94
2018-12-24T00:33:24.660Z,7.91
2018-12-24T00:34:24.631Z,7.88
2018-12-24T00:35:24.604Z,7.87
2018-12-24T00:36:24.585Z,7.83
2018-12-24T00:37:24.563Z,7.76
2018-12-24T00:38:24.542Z,7.74
2018-12-24T00:39:24.523Z,7.81
2018-12-24T00:40:24.506Z,7.80
2018-12-24T00:41:24.485Z,7.83
2018-12-24T00:42:24.456Z,7.66
2018-12-24T00:43:24.435Z,7.86
2018-12-24T00:44:24.413Z,7.80
2018-12-24T00:45:24.396Z,7.88
2018-12-24T00:46:24.372Z,7.95
2018-12-24T00:47:24.354Z,7.87
2018-12-24T00:48:24.326Z,7.91
2018-12-24T00:49:24.314Z,7.92
2018-12-24T00:50:24.286Z,7.96
2018-12-24T00:51:24.267Z,7.95
2018-12-24T00:52:24.244Z,7.98
2018-12-24T00:53:24.222Z,7.95
2018-12-24T00:54:24.202Z,7.95
2018-12-24T00:55:24.181Z,7.96
2018-12-24T00:56:24.159Z,7.98
2018-12-24T00:57:24.142Z,8.01
2018-12-24T00:58:24.121Z,7.98
2018-12-24T00:59:24.098Z,8.06
2018-12-24T01:00:24.075Z,7.91
2018-12-24T01:01:24.056Z,8.01
2018-12-24T01:02:24.036Z,8.01
2018-12-24T01:03:24.017Z,7.95
2018-12-24T01:04:23.999Z,8.01
2018-12-24T01:05:23.973Z,7.95
2018-12-24T01:06:23.957Z,8.05
2018-12-24T01:07:23.929Z,8.06
2018-12-24T01:08:23.909Z,7.98
2018-12-24T01:09:23.889Z,7.96
2018-12-24T01:10:23.865Z,7.96
2018-12-24T01:11:23.846Z,7.92
2018-12-24T01:12:24.758Z,7.94
2018-12-24T01:13:23.806Z,7.96
2018-12-24T01:14:23.796Z,7.95
2018-12-24T01:15:23.756Z,7.98
2018-12-24T01:16:23.739Z,7.99
2018-12-24T01:17:23.729Z,7.94
2018-12-24T01:18:23.695Z,7.94
2018-12-24T01:19:23.675Z,8.06
2018-12-24T01:20:23.650Z,8.04
2018-12-24T01:21:23.629Z,8.01
2018-12-24T01:22:23.608Z,8.09
2018-12-24T01:23:23.588Z,7.99
2018-12-24T01:24:23.567Z,7.92
2018-12-24T01:25:23.546Z,7.84
2018-12-24T01:26:23.526Z,7.95
2018-12-24T01:27:23.505Z,7.94
2018-12-24T01:28:23.482Z,7.81
2018-12-24T01:29:23.460Z,7.92
2018-12-24T01:30:23.439Z,7.84
2018-12-24T01:31:23.419Z,7.91
2018-12-24T01:32:23.395Z,7.88
2018-12-24T01:33:23.375Z,7.87
2018-12-24T01:34:23.355Z,7.88
2018-12-24T01:35:23.332Z,7.86
2018-12-24T01:36:23.311Z,7.81
2018-12-24T01:37:23.289Z,7.81
2018-12-24T01:38:23.267Z,7.92
2018-12-24T01:39:23.247Z,7.95
2018-12-24T01:40:23.223Z,7.81
2018-12-24T01:41:23.203Z,7.88
2018-12-24T01:42:23.187Z,7.94
2018-12-24T01:43:23.162Z,7.99
2018-12-24T01:44:23.138Z,8.02
2018-12-24T01:45:23.120Z,8.12
2018-12-24T01:46:23.104Z,8.05
2018-12-24T01:47:23.077Z,8.10
2018-12-24T01:48:23.054Z,8.04
2018-12-24T01:49:23.031Z,8.05
2018-12-24T01:50:23.015Z,7.99
2018-12-24T01:51:22.991Z,8.04
2018-12-24T01:52:22.971Z,8.10
2018-12-24T01:53:22.956Z,8.09
2018-12-24T01:54:22.927Z,8.05
2018-12-24T01:55:22.904Z,8.10
2018-12-24T01:56:22.884Z,7.92
2018-12-24T01:57:22.862Z,8.09
2018-12-24T01:58:22.842Z,8.06
2018-12-24T01:59:22.825Z,8.09
2018-12-24T02:00:22.799Z,8.17
2018-12-24T02:01:22.781Z,8.06
2018-12-24T02:02:22.760Z,8.05
2018-12-24T02:03:22.740Z,8.04
2018-12-24T02:04:22.717Z,8.10
2018-12-24T02:05:22.695Z,8.17
2018-12-24T02:06:22.672Z,8.17
2018-12-24T02:07:22.657Z,8.17
2018-12-24T02:08:22.630Z,8.16
2018-12-24T02:09:22.609Z,8.17
2018-12-24T02:10:22.600Z,8.21
2018-12-24T02:11:22.566Z,8.16
2018-12-24T02:12:22.549Z,8.19
2018-12-24T02:13:22.523Z,8.23
2018-12-24T02:14:22.501Z,8.32
2018-12-24T02:15:22.483Z,8.32
2018-12-24T02:16:22.465Z,8.31
2018-12-24T02:17:22.449Z,8.31
2018-12-24T02:18:22.417Z,8.26
2018-12-24T02:19:22.398Z,8.23
2018-12-24T02:20:22.376Z,8.21
2018-12-24T02:21:22.356Z,8.24
2018-12-24T02:22:22.333Z,8.19
2018-12-24T02:23:22.316Z,8.20
2018-12-24T02:24:22.294Z,8.31
2018-12-24T02:25:22.268Z,8.32
2018-12-24T02:26:22.248Z,8.21
2018-12-24T02:27:22.228Z,8.20
2018-12-24T02:28:22.222Z,8.16
2018-12-24T02:29:22.189Z,8.21
2018-12-24T02:30:22.166Z,8.19
2018-12-24T02:31:22.142Z,8.19
2018-12-24T02:32:22.120Z,8.23
2018-12-24T02:33:22.102Z,8.21
2018-12-24T02:34:22.081Z,8.14
2018-12-24T02:35:22.059Z,8.12
2018-12-24T02:36:22.036Z,8.14
2018-12-24T02:37:22.023Z,8.13
2018-12-24T02:38:21.998Z,8.10
2018-12-24T02:39:21.974Z,8.13
2018-12-24T02:40:21.952Z,8.19
2018-12-24T02:41:21.933Z,8.19
2018-12-24T02:42:21.911Z,8.13
2018-12-24T02:43:21.890Z,8.21
2018-12-24T02:44:21.872Z,8.20
2018-12-24T02:45:21.845Z,8.19
2018-12-24T02:46:21.838Z,8.17
2018-12-24T02:47:21.805Z,8.12
2018-12-24T02:48:21.786Z,8.19
2018-12-24T02:49:21.774Z,8.09
2018-12-24T02:50:21.743Z,8.05
2018-12-24T02:51:21.724Z,8.09
2018-12-24T02:52:21.702Z,8.09
2018-12-24T02:53:21.680Z,8.06
2018-12-24T02:54:21.658Z,7.98
2018-12-24T02:55:21.654Z,8.09
2018-12-24T02:56:21.621Z,8.14
2018-12-24T02:57:21.600Z,8.14
2018-12-24T02:58:21.576Z,8.20
2018-12-24T02:59:21.554Z,8.17
2018-12-24T03:00:21.531Z,8.20
2018-12-24T03:01:21.510Z,8.21
2018-12-24T03:02:21.488Z,8.19
2018-12-24T03:03:21.469Z,8.32
2018-12-24T03:04:21.453Z,8.28
2018-12-24T03:05:21.434Z,8.31
2018-12-24T03:06:21.409Z,8.29
2018-12-24T03:07:21.393Z,8.24
2018-12-24T03:08:21.366Z,8.19
2018-12-24T03:09:21.340Z,8.19
2018-12-24T03:10:21.321Z,8.31
2018-12-24T03:11:21.298Z,8.32
2018-12-24T03:12:21.281Z,8.32
2018-12-24T03:13:21.254Z,8.29
2018-12-24T03:14:21.232Z,8.28
2018-12-24T03:15:21.326Z,8.28
2018-12-24T03:16:21.198Z,8.29
2018-12-24T03:17:21.171Z,8.26
2018-12-24T03:18:21.151Z,8.24
2018-12-24T03:19:21.130Z,8.32
2018-12-24T03:20:21.109Z,8.38
2018-12-24T03:21:21.093Z,8.34
2018-12-24T03:22:21.069Z,8.26
2018-12-24T03:23:21.049Z,8.21
2018-12-24T03:24:21.030Z,8.20
2018-12-24T03:25:21.016Z,8.17
2018-12-24T03:26:20.982Z,8.24
2018-12-24T03:27:20.962Z,8.34
2018-12-24T03:28:20.961Z,8.28
2018-12-24T03:29:20.917Z,8.31
2018-12-24T03:30:20.902Z,8.34
2018-12-24T03:31:20.881Z,8.26
2018-12-24T03:32:20.878Z,8.41
2018-12-24T03:33:20.846Z,8.37
2018-12-24T03:34:20.813Z,8.29
2018-12-24T03:35:20.790Z,8.17
2018-12-24T03:36:20.771Z,8.19
2018-12-24T03:37:20.753Z,8.12
2018-12-24T03:38:20.731Z,8.16
2018-12-24T03:39:20.705Z,8.24
2018-12-24T03:40:20.683Z,8.17
2018-12-24T03:41:20.668Z,8.05
2018-12-24T03:42:20.650Z,8.04
2018-12-24T03:43:20.624Z,8.06
2018-12-24T03:44:20.602Z,7.96
2018-12-24T03:45:20.580Z,8.04
2018-12-24T03:46:20.559Z,8.01
2018-12-24T03:47:20.537Z,8.10
2018-12-24T03:48:20.517Z,8.17
2018-12-24T03:49:20.493Z,8.16
2018-12-24T03:50:20.472Z,8.20
2018-12-24T03:51:20.453Z,8.16
2018-12-24T03:52:20.434Z,8.13
2018-12-24T03:53:20.409Z,8.19
2018-12-24T03:54:20.389Z,8.20
2018-12-24T03:55:20.370Z,8.10
2018-12-24T03:56:20.344Z,8.10
2018-12-24T03:57:20.324Z,8.10
2018-12-24T03:58:20.304Z,8.06
2018-12-24T03:59:20.286Z,8.02
2018-12-24T04:00:20.263Z,7.91
2018-12-24T04:01:20.240Z,8.05
2018-12-24T04:02:20.217Z,8.02
2018-12-24T04:03:20.204Z,7.98
2018-12-24T04:04:20.183Z,7.95
2018-12-24T04:05:20.156Z,8.05
2018-12-24T04:06:20.132Z,8.04
2018-12-24T04:07:20.123Z,8.06
2018-12-24T04:08:20.100Z,8.09
2018-12-24T04:09:20.074Z,8.06
2018-12-24T04:10:20.051Z,8.05
2018-12-24T04:11:20.029Z,8.20
2018-12-24T04:12:20.009Z,8.17
2018-12-24T04:13:22.655Z,8.16
2018-12-24T04:14:19.965Z,8.20
2018-12-24T04:15:19.952Z,8.14
2018-12-24T04:16:19.920Z,8.16
2018-12-24T04:17:19.900Z,8.19
2018-12-24T04:18:19.879Z,8.17
2018-12-24T04:19:20.031Z,8.20
2018-12-24T04:20:19.854Z,8.20
2018-12-24T04:21:19.825Z,8.10
2018-12-24T04:22:19.807Z,8.14
2018-12-24T04:23:19.775Z,8.06
2018-12-24T04:24:19.751Z,8.14
2018-12-24T04:25:19.747Z,8.09
2018-12-24T04:26:19.711Z,8.04
2018-12-24T04:27:19.694Z,8.06
2018-12-24T04:28:19.664Z,8.06
2018-12-24T04:29:19.648Z,8.04
2018-12-24T04:30:19.731Z,8.01
2018-12-24T04:31:19.606Z,7.99
2018-12-24T04:32:19.597Z,7.92
2018-12-24T04:33:19.560Z,8.04
2018-12-24T04:34:19.541Z,7.95
2018-12-24T04:35:19.518Z,7.99
2018-12-24T04:36:19.495Z,8.06
2018-12-24T04:37:19.478Z,8.04
2018-12-24T04:38:19.454Z,8.04
2018-12-24T04:39:19.433Z,8.09
2018-12-24T04:40:19.411Z,8.13
2018-12-24T04:41:19.393Z,8.17
2018-12-24T04:42:19.372Z,8.14
2018-12-24T04:43:19.350Z,8.14
2018-12-24T04:44:19.330Z,8.12
2018-12-24T04:45:19.305Z,8.19
2018-12-24T04:46:19.284Z,8.19
2018-12-24T04:47:19.266Z,8.23
2018-12-24T04:48:19.242Z,8.37
2018-12-24T04:49:19.220Z,8.21
2018-12-24T04:50:19.202Z,8.23
2018-12-24T04:51:19.192Z,8.17
2018-12-24T04:52:19.160Z,8.16
2018-12-24T04:53:19.139Z,8.20
2018-12-24T04:54:19.117Z,8.12
2018-12-24T04:55:19.098Z,8.13
2018-12-24T04:56:19.072Z,8.05
2018-12-24T04:57:19.052Z,8.06
2018-12-24T04:58:19.031Z,7.99
2018-12-24T04:59:19.010Z,7.96
2018-12-24T05:00:18.990Z,7.95
2018-12-24T05:01:18.966Z,7.98
2018-12-24T05:02:18.943Z,8.06
2018-12-24T05:03:18.922Z,8.10
2018-12-24T05:04:18.905Z,8.05
2018-12-24T05:05:18.887Z,8.12
2018-12-24T05:06:18.859Z,8.02
2018-12-24T05:07:18.837Z,8.09
2018-12-24T05:08:18.816Z,8.12
2018-12-24T05:09:18.793Z,8.10
2018-12-24T05:10:18.774Z,8.01
2018-12-24T05:11:18.753Z,8.02
2018-12-24T05:12:18.731Z,8.09
2018-12-24T05:13:18.709Z,8.09
2018-12-24T05:14:18.696Z,8.13
2018-12-24T05:15:18.667Z,8.17
2018-12-24T05:16:18.645Z,8.19
2018-12-24T05:17:18.624Z,8.13
2018-12-24T05:18:18.603Z,8.14
2018-12-24T05:19:18.582Z,8.09
2018-12-24T05:20:18.559Z,8.16
2018-12-24T05:21:18.542Z,8.16
2018-12-24T05:22:18.516Z,8.16
2018-12-24T05:23:18.496Z,8.19
2018-12-24T05:24:18.473Z,8.17
2018-12-24T05:25:18.455Z,8.21
2018-12-24T05:26:18.433Z,8.16
2018-12-24T05:27:18.415Z,8.17
2018-12-24T05:28:18.388Z,8.19
2018-12-24T05:29:18.373Z,8.19
2018-12-24T05:30:18.351Z,8.24
2018-12-24T05:31:18.328Z,8.23
2018-12-24T05:32:18.304Z,8.17
2018-12-24T05:33:18.282Z,8.17
2018-12-24T05:34:18.265Z,8.21
2018-12-24T05:35:18.245Z,8.13
2018-12-24T05:36:18.233Z,8.14
2018-12-24T05:37:18.198Z,8.20
2018-12-24T05:38:18.179Z,8.20
2018-12-24T05:39:18.156Z,8.20
2018-12-24T05:40:18.136Z,8.19
2018-12-24T05:41:18.115Z,8.20
2018-12-24T05:42:18.094Z,8.13
2018-12-24T05:43:18.075Z,8.20
2018-12-24T05:44:18.051Z,8.13
2018-12-24T05:45:18.030Z,8.14
2018-12-24T05:46:18.012Z,8.14
2018-12-24T05:47:17.994Z,8.10
2018-12-24T05:48:17.966Z,7.99
2018-12-24T05:49:17.947Z,8.04
2018-12-24T05:50:17.925Z,7.99
2018-12-24T05:51:17.905Z,7.96
2018-12-24T05:52:17.882Z,7.86
2018-12-24T05:53:17.861Z,7.76
2018-12-24T05:54:17.839Z,7.74
2018-12-24T05:55:17.823Z,7.74
2018-12-24T05:56:17.796Z,7.71
2018-12-24T05:57:17.777Z,7.76
2018-12-24T05:58:17.756Z,7.69
2018-12-24T05:59:17.733Z,7.68
2018-12-24T06:00:17.715Z,7.76
2018-12-24T06:01:17.689Z,7.73
2018-12-24T06:02:17.668Z,7.62
2018-12-24T06:03:17.650Z,7.68
2018-12-24T06:04:17.626Z,7.55
2018-12-24T06:05:17.603Z,7.52
2018-12-24T06:06:17.587Z,7.64
2018-12-24T06:07:17.561Z,7.44
2018-12-24T06:08:17.538Z,7.43
2018-12-24T06:09:17.519Z,7.37
2018-12-24T06:10:17.499Z,7.46
2018-12-24T06:11:17.476Z,7.49
2018-12-24T06:12:17.468Z,7.42
2018-12-24T06:13:17.434Z,7.42
2018-12-24T06:14:17.419Z,7.44
2018-12-24T06:15:17.392Z,7.42
2018-12-24T06:16:17.368Z,7.44
2018-12-24T06:17:17.350Z,7.46
2018-12-24T06:18:17.334Z,7.49
2018-12-24T06:19:17.302Z,7.57
2018-12-24T06:20:17.285Z,7.52
2018-12-24T06:21:17.261Z,7.62
2018-12-24T06:22:17.237Z,7.58
2018-12-24T06:23:17.219Z,7.57
2018-12-24T06:24:17.199Z,7.64
2018-12-24T06:25:17.174Z,7.66
2018-12-24T06:26:17.151Z,7.54
2018-12-24T06:27:17.129Z,7.50
2018-12-24T06:28:17.107Z,7.46
2018-12-24T06:29:17.087Z,7.47
2018-12-24T06:30:17.065Z,7.49
2018-12-24T06:31:17.056Z,7.40
2018-12-24T06:32:17.024Z,7.47
2018-12-24T06:33:16.998Z,7.39
2018-12-24T06:34:16.982Z,7.37
2018-12-24T06:35:16.958Z,7.50
2018-12-24T06:36:16.938Z,7.37
2018-12-24T06:37:16.915Z,7.47
2018-12-24T06:38:16.894Z,7.47
2018-12-24T06:39:16.872Z,7.36
2018-12-24T06:40:16.849Z,7.34
2018-12-24T06:41:16.829Z,7.24
2018-12-24T06:42:18.195Z,7.18
2018-12-24T06:43:16.785Z,7.28
2018-12-24T06:44:16.769Z,7.26
2018-12-24T06:45:16.751Z,7.22
2018-12-24T06:46:16.720Z,7.18
2018-12-24T06:47:16.700Z,7.18
2018-12-24T06:48:16.685Z,7.08
2018-12-24T06:49:16.653Z,7.01
2018-12-24T06:50:16.637Z,7.03
2018-12-24T06:51:16.612Z,7.04
2018-12-24T06:52:16.590Z,7.03
2018-12-24T06:53:16.565Z,7.00
2018-12-24T06:54:16.550Z,7.07
2018-12-24T06:55:16.525Z,6.86
2018-12-24T06:56:16.498Z,6.96
2018-12-24T06:57:16.478Z,6.88
2018-12-24T06:58:16.455Z,6.88
2018-12-24T06:59:16.438Z,6.92
2018-12-24T07:00:16.411Z,6.92
2018-12-24T07:01:16.389Z,6.83
2018-12-24T07:02:16.376Z,6.96
2018-12-24T07:03:16.355Z,6.88
2018-12-24T07:04:16.323Z,7.00
2018-12-24T07:05:16.313Z,7.04
2018-12-24T07:06:16.287Z,7.00
2018-12-24T07:07:16.259Z,7.00
2018-12-24T07:08:16.237Z,6.89
2018-12-24T07:09:16.215Z,6.93
2018-12-24T07:10:16.218Z,6.93
2018-12-24T07:11:16.172Z,6.85
2018-12-24T07:12:16.148Z,6.86
2018-12-24T07:13:16.125Z,6.89
2018-12-24T07:14:16.103Z,6.92
2018-12-24T07:15:16.086Z,6.93
2018-12-24T07:16:16.068Z,6.96
2018-12-24T07:17:16.036Z,6.99
2018-12-24T07:18:16.029Z,7.04
2018-12-24T07:19:15.999Z,7.01
2018-12-24T07:20:16.049Z,6.93
2018-12-24T07:21:15.951Z,6.88
2018-12-24T07:22:15.929Z,7.00
2018-12-24T07:23:15.911Z,6.89
2018-12-24T07:24:15.888Z,6.86
2018-12-24T07:25:15.862Z,6.89
2018-12-24T07:26:15.841Z,6.88
2018-12-24T07:27:15.821Z,6.93
2018-12-24T07:28:15.798Z,6.86
2018-12-24T07:29:15.777Z,7.03
2018-12-24T07:30:15.755Z,7.04
2018-12-24T07:31:17.816Z,7.00
2018-12-24T07:32:15.716Z,6.96
2018-12-24T07:33:15.691Z,6.93
2018-12-24T07:34:15.667Z,6.92
2018-12-24T07:35:15.644Z,7.01
2018-12-24T07:36:15.622Z,6.99
2018-12-24T07:37:15.607Z,6.88
2018-12-24T07:38:15.579Z,6.89
2018-12-24T07:39:15.563Z,6.86
2018-12-24T07:40:15.537Z,6.82
2018-12-24T07:41:15.512Z,6.88
2018-12-24T07:42:15.493Z,6.91
2018-12-24T07:43:15.479Z,6.96
2018-12-24T07:44:23.910Z,7.00
2018-12-24T07:45:15.425Z,6.99
2018-12-24T07:46:15.408Z,7.04
2018-12-24T07:47:15.395Z,6.96
2018-12-24T07:48:15.363Z,7.03
2018-12-24T07:49:15.338Z,7.03
2018-12-24T07:50:15.315Z,7.00
2018-12-24T07:51:15.293Z,6.96
2018-12-24T07:52:15.273Z,7.01
2018-12-24T07:53:15.251Z,6.91
2018-12-24T07:54:15.230Z,6.91
2018-12-24T07:55:15.206Z,6.82
2018-12-24T07:56:15.183Z,6.83
2018-12-24T07:57:15.163Z,6.83
2018-12-24T07:58:15.141Z,6.79
2018-12-24T07:59:15.117Z,6.71
2018-12-24T08:00:15.093Z,6.60
2018-12-24T08:01:15.075Z,6.56
2018-12-24T08:02:15.052Z,6.50
2018-12-24T08:03:15.030Z,6.37
2018-12-24T08:04:15.007Z,6.45
2018-12-24T08:05:14.988Z,6.42
2018-12-24T08:06:14.969Z,6.45
2018-12-24T08:07:14.943Z,6.60
2018-12-24T08:08:14.920Z,6.60
2018-12-24T08:09:14.906Z,6.53
2018-12-24T08:10:14.875Z,6.40
2018-12-24T08:11:14.853Z,6.25
2018-12-24T08:12:14.831Z,6.32
2018-12-24T08:13:14.817Z,6.25
2018-12-24T08:14:14.786Z,6.28
2018-12-24T08:15:14.770Z,6.34
2018-12-24T08:16:14.743Z,6.34
2018-12-24T08:17:14.720Z,6.34
2018-12-24T08:18:14.700Z,6.42
2018-12-24T08:19:14.678Z,6.35
2018-12-24T08:20:14.652Z,6.49
2018-12-24T08:21:14.635Z,6.47
2018-12-24T08:22:14.610Z,6.57
2018-12-24T08:23:14.595Z,6.57
2018-12-24T08:24:14.563Z,6.38
2018-12-24T08:25:14.548Z,6.46
2018-12-24T08:26:14.522Z,6.55
2018-12-24T08:27:14.506Z,6.55
2018-12-24T08:28:14.480Z,6.49
2018-12-24T08:29:14.458Z,6.40
2018-12-24T08:30:14.435Z,6.46
2018-12-24T08:31:14.413Z,6.60
2018-12-24T08:32:14.388Z,6.75
2018-12-24T08:33:14.382Z,6.96
2018-12-24T08:34:14.349Z,7.15
2018-12-24T08:35:14.327Z,7.39
2018-12-24T08:36:14.304Z,7.43
2018-12-24T08:37:14.283Z,7.43
2018-12-24T08:38:15.746Z,8.06
2018-12-24T08:39:14.241Z,7.81
2018-12-24T08:40:14.223Z,8.06
2018-12-24T08:41:14.199Z,8.06
2018-12-24T08:42:14.178Z,7.83
2018-12-24T08:43:14.155Z,7.83
2018-12-24T08:44:14.137Z,7.64
2018-12-24T08:45:14.116Z,7.62
2018-12-24T08:46:14.093Z,7.44
2018-12-24T08:47:14.077Z,7.15
2018-12-24T08:48:14.058Z,7.00
2018-12-24T08:49:14.041Z,6.92
2018-12-24T08:50:14.014Z,6.99
2018-12-24T08:51:13.988Z,6.91
2018-12-24T08:52:13.970Z,6.79
2018-12-24T08:53:13.950Z,6.86
2018-12-24T08:54:13.939Z,6.91
2018-12-24T08:55:13.908Z,6.91
2018-12-24T08:56:13.886Z,6.93
2018-12-24T08:57:13.874Z,7.03
2018-12-24T08:58:13.849Z,7.73
2018-12-24T08:59:13.822Z,8.75
2018-12-24T09:00:13.810Z,9.96
2018-12-24T09:01:13.789Z,10.43
2018-12-24T09:02:13.772Z,10.72
2018-12-24T09:03:13.746Z,11.31
2018-12-24T09:04:13.735Z,12.13
2018-12-24T09:05:13.767Z,12.73
2018-12-24T09:06:13.691Z,13.01
2018-12-24T09:07:13.677Z,12.87
2018-12-24T09:08:13.663Z,12.96
2018-12-24T09:09:13.645Z,13.26
2018-12-24T09:10:13.627Z,13.75
2018-12-24T09:11:13.612Z,13.83
2018-12-24T09:12:13.599Z,14.26
2018-12-24T09:13:13.588Z,14.40
2018-12-24T09:14:13.573Z,14.56
2018-12-24T09:15:13.561Z,14.85
2018-12-24T09:16:13.546Z,14.55
2018-12-24T09:17:13.537Z,14.99
2018-12-24T09:18:13.519Z,15.23
2018-12-24T09:19:13.519Z,14.93
2018-12-24T09:20:13.500Z,15.19
2018-12-24T09:21:13.487Z,15.48
2018-12-24T09:22:13.479Z,15.66
2018-12-24T09:23:13.465Z,15.81
2018-12-24T09:24:13.458Z,15.59
2018-12-24T09:25:13.438Z,15.81
2018-12-24T09:26:13.429Z,15.88
2018-12-24T09:27:13.420Z,15.99
2018-12-24T09:28:13.408Z,16.14
2018-12-24T09:29:13.423Z,16.08
2018-12-24T09:30:13.422Z,16.00
2018-12-24T09:31:13.380Z,16.05
2018-12-24T09:32:13.371Z,15.87
2018-12-24T09:33:13.352Z,15.96
2018-12-24T09:34:13.343Z,16.08
2018-12-24T09:35:13.334Z,16.33
2018-12-24T09:36:13.325Z,16.49
2018-12-24T09:37:13.321Z,16.28
2018-12-24T09:38:13.309Z,15.69
2018-12-24T09:39:13.296Z,15.81
2018-12-24T09:40:13.283Z,16.13
2018-12-24T09:41:13.277Z,16.25
2018-12-24T09:42:13.276Z,16.29
2018-12-24T09:43:13.260Z,16.61
2018-12-24T09:44:13.259Z,16.54
2018-12-24T09:45:13.236Z,16.36
2018-12-24T09:46:13.241Z,16.22
2018-12-24T09:47:13.225Z,16.33
2018-12-24T09:48:13.210Z,16.49
2018-12-24T09:49:13.209Z,16.24
2018-12-24T09:50:13.202Z,16.08
2018-12-24T09:51:13.196Z,16.33
2018-12-24T09:52:13.177Z,16.46
2018-12-24T09:53:13.166Z,16.47
2018-12-24T09:54:13.165Z,16.58
2018-12-24T09:55:13.152Z,16.62
2018-12-24T09:56:13.144Z,16.55
2018-12-24T09:57:13.256Z,16.55
2018-12-24T09:58:13.133Z,16.62
2018-12-24T09:59:13.121Z,16.46
2018-12-24T10:00:13.114Z,16.55
2018-12-24T10:01:13.098Z,16.32
2018-12-24T10:02:13.091Z,16.32
2018-12-24T10:03:13.083Z,16.44
2018-12-24T10:04:13.077Z,16.61
2018-12-24T10:05:13.066Z,16.28
2018-12-24T10:06:13.088Z,16.10
2018-12-24T10:07:13.101Z,16.17
2018-12-24T10:08:13.047Z,15.87
2018-12-24T10:09:13.033Z,16.03
2018-12-24T10:10:13.025Z,15.96
2018-12-24T10:11:13.017Z,15.88
2018-12-24T10:12:13.013Z,15.84
2018-12-24T10:13:13.004Z,16.00
2018-12-24T10:14:12.996Z,16.06
2018-12-24T10:15:12.984Z,16.16
2018-12-24T10:16:12.979Z,15.69
2018-12-24T10:17:12.970Z,15.76
2018-12-24T10:18:12.964Z,15.76
2018-12-24T10:19:12.951Z,15.93
2018-12-24T10:20:12.941Z,14.96
2018-12-24T10:21:12.937Z,14.34
2018-12-24T10:22:12.919Z,14.38
2018-12-24T10:23:12.915Z,14.13
2018-12-24T10:24:12.907Z,14.83
2018-12-24T10:25:12.893Z,15.15
2018-12-24T10:26:12.886Z,15.47
2018-12-24T10:27:12.875Z,15.30
2018-12-24T10:28:12.873Z,14.78
2018-12-24T10:29:12.858Z,14.12
2018-12-24T10:30:12.846Z,14.04
2018-12-24T10:31:12.834Z,14.09
2018-12-24T10:32:12.826Z,14.19
2018-12-24T10:33:12.820Z,14.27
2018-12-24T10:34:12.801Z,13.85
2018-12-24T10:35:12.801Z,14.46
2018-12-24T10:36:12.784Z,14.78
2018-12-24T10:37:12.771Z,14.85
2018-12-24T10:38:12.763Z,15.08
2018-12-24T10:39:12.751Z,15.01
2018-12-24T10:40:12.739Z,15.41
2018-12-24T10:41:12.732Z,15.15
2018-12-24T10:42:12.716Z,15.41
2018-12-24T10:43:12.704Z,15.62
2018-12-24T10:44:12.700Z,15.19
2018-12-24T10:45:16.492Z,14.48
2018-12-24T10:46:12.674Z,14.23
2018-12-24T10:47:12.664Z,14.22
2018-12-24T10:48:12.649Z,14.73
2018-12-24T10:49:12.644Z,14.90
2018-12-24T10:50:12.630Z,14.99
2018-12-24T10:51:12.619Z,14.48
2018-12-24T10:52:12.606Z,14.37
2018-12-24T10:53:12.594Z,14.71
2018-12-24T10:54:12.589Z,14.96
2018-12-24T10:55:12.578Z,14.19
2018-12-24T10:56:12.563Z,14.40
2018-12-24T10:57:12.554Z,14.82
2018-12-24T10:58:12.553Z,14.99
2018-12-24T10:59:12.529Z,15.38
2018-12-24T11:00:12.530Z,15.50
2018-12-24T11:01:12.510Z,15.41
2018-12-24T11:02:12.496Z,14.34
2018-12-24T11:03:12.491Z,14.27
2018-12-24T11:04:12.475Z,13.36
2018-12-24T11:05:12.465Z,12.98
2018-12-24T11:06:12.452Z,13.13
2018-12-24T11:07:12.437Z,12.77
2018-12-24T11:08:12.425Z,12.62
2018-12-24T11:09:12.414Z,12.44
2018-12-24T11:10:12.406Z,11.85
2018-12-24T11:11:12.397Z,11.40
2018-12-24T11:12:12.372Z,11.37
2018-12-24T11:13:12.365Z,11.12
2018-12-24T11:14:12.350Z,11.61
2018-12-24T11:15:12.348Z,11.55
2018-12-24T11:16:12.326Z,11.46
2018-12-24T11:17:12.313Z,11.56
2018-12-24T11:18:12.290Z,11.31
2018-12-24T11:19:12.277Z,11.16
2018-12-24T11:20:12.263Z,11.01
2018-12-24T11:21:12.247Z,10.57
2018-12-24T11:22:12.237Z,10.34
2018-12-24T11:23:12.221Z,10.58
2018-12-24T11:24:12.203Z,10.91
2018-12-24T11:25:12.192Z,11.36
2018-12-24T11:26:12.178Z,11.51
2018-12-24T11:27:12.161Z,11.62
2018-12-24T11:28:12.144Z,11.46
2018-12-24T11:29:12.128Z,11.43
2018-12-24T11:30:12.121Z,11.27
2018-12-24T11:31:12.097Z,11.04
2018-12-24T11:32:12.081Z,10.21
2018-12-24T11:33:12.065Z,9.98
2018-12-24T11:34:12.055Z,10.09
2018-12-24T11:35:12.036Z,10.05
2018-12-24T11:36:12.017Z,10.58
2018-12-24T11:37:12.002Z,10.90
2018-12-24T11:38:11.992Z,11.36
2018-12-24T11:39:11.981Z,11.71
2018-12-24T11:40:11.963Z,12.03
2018-12-24T11:41:11.941Z,12.44
2018-12-24T11:42:11.925Z,12.65
2018-12-24T11:43:11.919Z,12.90
2018-12-24T11:44:11.894Z,12.98
2018-12-24T11:45:11.884Z,13.11
2018-12-24T11:46:11.872Z,13.23
2018-12-24T11:47:11.855Z,13.42
2018-12-24T11:48:11.847Z,13.60
2018-12-24T11:49:11.830Z,13.80
2018-12-24T11:50:11.816Z,13.40
2018-12-24T11:51:11.798Z,13.17
2018-12-24T11:52:11.787Z,12.86
2018-12-24T11:53:11.788Z,12.30
2018-12-24T11:54:11.756Z,12.40
2018-12-24T11:55:11.744Z,12.83
2018-12-24T11:56:11.729Z,12.98
2018-12-24T11:57:11.720Z,13.13
2018-12-24T11:58:13.295Z,12.83
2018-12-24T11:59:11.685Z,12.43
2018-12-24T12:00:11.673Z,12.04
2018-12-24T12:01:11.662Z,11.69
2018-12-24T12:02:11.645Z,11.54
2018-12-24T12:03:12.786Z,11.08
2018-12-24T12:04:11.623Z,10.57
2018-12-24T12:05:11.602Z,10.27
2018-12-24T12:06:19.534Z,9.96
2018-12-24T12:07:11.583Z,10.03
2018-12-24T12:08:11.557Z,10.08
2018-12-24T12:09:11.550Z,10.02
2018-12-24T12:10:11.536Z,9.99
2018-12-24T12:11:11.508Z,10.06
2018-12-24T12:12:11.494Z,10.18
2018-12-24T12:13:11.483Z,10.10
2018-12-24T12:14:11.458Z,10.14
2018-12-24T12:15:13.035Z,10.06
2018-12-24T12:16:11.437Z,9.88
2018-12-24T12:17:11.409Z,9.70
2018-12-24T12:18:11.399Z,9.48
2018-12-24T12:19:11.375Z,9.72
2018-12-24T12:20:11.358Z,9.66
2018-12-24T12:21:11.337Z,9.65
2018-12-24T12:22:11.326Z,9.67
2018-12-24T12:23:11.311Z,9.69
2018-12-24T12:24:11.286Z,9.78
2018-12-24T12:25:11.269Z,9.94
2018-12-24T12:26:11.254Z,9.94
2018-12-24T12:27:11.246Z,10.20
2018-12-24T12:28:11.216Z,10.39
2018-12-24T12:29:11.198Z,10.45
2018-12-24T12:30:11.181Z,10.42
2018-12-24T12:31:11.170Z,10.57
2018-12-24T12:32:11.149Z,10.76
2018-12-24T12:33:11.128Z,10.76
2018-12-24T12:34:11.112Z,10.65
2018-12-24T12:35:11.095Z,10.67
2018-12-24T12:36:11.078Z,10.55
2018-12-24T12:37:11.067Z,10.42
2018-12-24T12:38:11.042Z,10.24
2018-12-24T12:39:11.025Z,10.09
2018-12-24T12:40:11.009Z,10.06
2018-12-24T12:41:10.994Z,10.28
2018-12-24T12:42:10.984Z,10.18
2018-12-24T12:43:10.959Z,10.23
2018-12-24T12:44:10.942Z,10.27
2018-12-24T12:45:11.002Z,10.35
2018-12-24T12:46:10.907Z,10.41
2018-12-24T12:47:10.887Z,10.39
2018-12-24T12:48:10.871Z,10.45
2018-12-24T12:49:10.849Z,10.76
2018-12-24T12:50:10.835Z,10.64
2018-12-24T12:51:10.817Z,10.64
2018-12-24T12:52:10.801Z,10.76
2018-12-24T12:53:10.778Z,10.64
2018-12-24T12:54:10.763Z,10.58
2018-12-24T12:55:10.749Z,10.49
2018-12-24T12:56:10.727Z,10.34
2018-12-24T12:57:10.713Z,10.26
2018-12-24T12:58:10.695Z,10.28
2018-12-24T12:59:10.675Z,10.49
2018-12-24T13:00:10.652Z,10.48
2018-12-24T13:01:10.647Z,10.54
2018-12-24T13:02:10.618Z,10.72
2018-12-24T13:03:10.608Z,10.67
2018-12-24T13:04:10.582Z,10.75
2018-12-24T13:05:10.566Z,10.83
2018-12-24T13:06:10.549Z,10.85
2018-12-24T13:07:10.532Z,10.76
2018-12-24T13:08:10.512Z,10.48
2018-12-24T13:09:10.501Z,10.62
2018-12-24T13:10:10.566Z,10.78